Terminal Aerodrome Forecast
Issued by NWS

Home | Current Version | Previous Version | Text Only | Print | Product List | Glossary On
Versions: 1 2 3 4 5 6 7 8 9 10 11 12 13 14 15 16
240
FTUS44 KEPZ 172340
TAFLRU
TAF
KLRU 172340Z 1800/1824 28008KT P6SM SCT040 BKN200
     FM180200 20006KT P6SM FEW020 BKN200
      TEMPO 1811/1814 4SM BR
     FM181700 24012KT P6SM VCSH SCT040 BKN100
     FM182000 24016G26KT P6SM SCT040 BKN100=

USA.gov is the U.S. government's official web portal to all federal, state and local government web resources and services.